Sylvan Lake, Canada
Current Conditions -  °F | °C
As of 1:00 AM on Tuesday 21 Oct 2014 (Local Time) from CYQF Reporting Station
Overcast Overcast  
Wind Chill: 54°   Ceiling: 23000
Heat Index: 54°   Visibility: 15mi
Dew Point: 36°   Wind: 7mph
Humidity: 51%   Direction: 280°W
Pressure: 29.56"   Gusts: NA
Location:  52.31°N, 114.09°W
Report Text: CYQF 210700Z 28006KT 15SM OVC230 12/02 A2956 RMK CI8 SLP011 DENSITY ALT 3600FT
Loading
Personal Weather Stations






























Interactive Weather Map New forecast layout! Learn more

10-Day Weather Forecast

Advertisements
Track Severe Weather on mobile